FIN165 EFHK-EFRO
Flight info
| Callsign | FIN165 |
|---|---|
| Flight time | 1h 4m |
| Altitude | 36000 |
| Route | TEVRU4N TEVRU Y75 MIMRU DCT EVSET Y86 RENVI RENVI3D |
| Aircraft | A321/M-SDE3FGHIRWY/LB1 |
Departure
| Time | 2026-05-06 13:00 |
|---|---|
| Airport | Helsinki Vantaa Airport (EFHK) |
Arrival
| Time | 2026-05-06 14:04 |
|---|---|
| Airport | Rovaniemi Airport (EFRO) |
| Time | Latitude | Longitude | Altitude | Speed | Heading |
|---|---|---|---|---|---|
| 2026-05-06 12:29 | 60.31946 | 24.96679 | 167 ft | 0 kts | 137° |
| 2026-05-06 12:43 | 60.31946 | 24.96678 | 167 ft | 0 kts | 137° |
| 2026-05-06 12:49 | 60.31950 | 24.96672 | 167 ft | 4 kts | 135° |
| 2026-05-06 12:50 | 60.31965 | 24.96630 | 167 ft | 4 kts | 105° |
| 2026-05-06 12:50 | 60.31966 | 24.96579 | 167 ft | 4 kts | 69° |
| 2026-05-06 12:50 | 60.31958 | 24.96551 | 167 ft | 1 kts | 47° |
| 2026-05-06 12:53 | 60.31962 | 24.96558 | 167 ft | 3 kts | 47° |
| 2026-05-06 12:53 | 60.31986 | 24.96611 | 167 ft | 8 kts | 47° |
| 2026-05-06 12:54 | 60.32031 | 24.96710 | 167 ft | 10 kts | 47° |
| 2026-05-06 12:54 | 60.32078 | 24.96813 | 167 ft | 9 kts | 47° |
| 2026-05-06 12:54 | 60.32124 | 24.96867 | 166 ft | 10 kts | 354° |
| 2026-05-06 12:54 | 60.32215 | 24.96770 | 166 ft | 17 kts | 330° |
| 2026-05-06 12:55 | 60.32292 | 24.96679 | 167 ft | 9 kts | 329° |
| 2026-05-06 12:55 | 60.32344 | 24.96618 | 171 ft | 8 kts | 330° |
| 2026-05-06 12:55 | 60.32404 | 24.96548 | 175 ft | 14 kts | 330° |
| 2026-05-06 12:55 | 60.32517 | 24.96415 | 174 ft | 23 kts | 329° |
| 2026-05-06 12:56 | 60.32625 | 24.96288 | 173 ft | 19 kts | 330° |
| 2026-05-06 12:56 | 60.32742 | 24.96151 | 173 ft | 20 kts | 329° |
| 2026-05-06 12:56 | 60.32862 | 24.96014 | 174 ft | 20 kts | 330° |
| 2026-05-06 12:56 | 60.32978 | 24.95879 | 178 ft | 18 kts | 330° |
| 2026-05-06 12:57 | 60.33083 | 24.95744 | 180 ft | 19 kts | 321° |
| 2026-05-06 12:57 | 60.33116 | 24.95686 | 180 ft | 3 kts | 318° |
| 2026-05-06 12:57 | 60.33184 | 24.95561 | 182 ft | 17 kts | 315° |
| 2026-05-06 12:57 | 60.33188 | 24.95350 | 180 ft | 16 kts | 231° |
| 2026-05-06 12:58 | 60.33114 | 24.95151 | 178 ft | 18 kts | 249° |
| 2026-05-06 12:58 | 60.33109 | 24.94896 | 179 ft | 18 kts | 272° |
| 2026-05-06 12:58 | 60.33116 | 24.94662 | 196 ft | 13 kts | 272° |
| 2026-05-06 12:58 | 60.33119 | 24.94509 | 190 ft | 9 kts | 272° |
| 2026-05-06 12:59 | 60.33105 | 24.94387 | 200 ft | 10 kts | 239° |
| 2026-05-06 12:59 | 60.33005 | 24.94154 | 196 ft | 51 kts | 227° |
| 2026-05-06 12:59 | 60.32591 | 24.93238 | 179 ft | 122 kts | 227° |
| 2026-05-06 12:59 | 60.31918 | 24.91749 | 474 ft | 150 kts | 226° |
| 2026-05-06 13:00 | 60.31216 | 24.90193 | 1289 ft | 150 kts | 229° |
| 2026-05-06 13:00 | 60.30517 | 24.88505 | 1750 ft | 166 kts | 241° |
| 2026-05-06 13:00 | 60.30172 | 24.86204 | 2021 ft | 186 kts | 268° |
| 2026-05-06 13:00 | 60.30447 | 24.83529 | 2242 ft | 208 kts | 292° |
| 2026-05-06 13:01 | 60.31061 | 24.80721 | 2584 ft | 229 kts | 293° |
| 2026-05-06 13:01 | 60.31735 | 24.77673 | 3230 ft | 242 kts | 295° |
| 2026-05-06 13:01 | 60.32513 | 24.74620 | 4078 ft | 246 kts | 298° |
| 2026-05-06 13:01 | 60.33350 | 24.71585 | 5042 ft | 248 kts | 299° |
| 2026-05-06 13:02 | 60.34212 | 24.68536 | 5942 ft | 252 kts | 299° |
| 2026-05-06 13:02 | 60.35189 | 24.65582 | 6802 ft | 256 kts | 313° |
| 2026-05-06 13:02 | 60.36648 | 24.63468 | 7663 ft | 263 kts | 334° |
| 2026-05-06 13:02 | 60.38445 | 24.62618 | 8490 ft | 271 kts | 358° |
| 2026-05-06 13:03 | 60.40331 | 24.63172 | 9318 ft | 278 kts | 11° |
| 2026-05-06 13:03 | 60.42234 | 24.64053 | 10156 ft | 283 kts | 11° |
| 2026-05-06 13:03 | 60.44222 | 24.64970 | 10505 ft | 304 kts | 10° |
| 2026-05-06 13:03 | 60.46333 | 24.65936 | 10801 ft | 325 kts | 9° |
| 2026-05-06 13:04 | 60.48570 | 24.66962 | 11415 ft | 333 kts | 9° |
| 2026-05-06 13:04 | 60.50850 | 24.68011 | 12124 ft | 338 kts | 8° |
| 2026-05-06 13:04 | 60.53165 | 24.69074 | 12852 ft | 343 kts | 7° |
| 2026-05-06 13:04 | 60.55506 | 24.70144 | 13657 ft | 346 kts | 6° |
| 2026-05-06 13:05 | 60.57871 | 24.71222 | 14311 ft | 351 kts | 5° |
| 2026-05-06 13:05 | 60.60270 | 24.72313 | 14928 ft | 356 kts | 5° |
| 2026-05-06 13:05 | 60.62701 | 24.73425 | 15527 ft | 361 kts | 5° |
| 2026-05-06 13:05 | 60.65172 | 24.74561 | 16146 ft | 366 kts | 4° |
| 2026-05-06 13:06 | 60.67673 | 24.75717 | 16755 ft | 372 kts | 4° |
| 2026-05-06 13:06 | 60.70217 | 24.76896 | 17360 ft | 377 kts | 4° |
| 2026-05-06 13:06 | 60.72795 | 24.78095 | 17971 ft | 382 kts | 4° |
| 2026-05-06 13:06 | 60.75409 | 24.79315 | 18518 ft | 388 kts | 3° |
| 2026-05-06 13:07 | 60.78055 | 24.80554 | 19052 ft | 392 kts | 3° |
| 2026-05-06 13:07 | 60.80729 | 24.81804 | 19592 ft | 396 kts | 3° |
| 2026-05-06 13:07 | 60.83435 | 24.82787 | 20166 ft | 393 kts | 355° |
| 2026-05-06 13:07 | 60.86126 | 24.83427 | 20746 ft | 395 kts | 355° |
| 2026-05-06 13:08 | 60.88875 | 24.84070 | 21295 ft | 399 kts | 355° |
| 2026-05-06 13:08 | 60.91649 | 24.84712 | 21841 ft | 403 kts | 354° |
| 2026-05-06 13:08 | 60.94449 | 24.85360 | 22382 ft | 407 kts | 354° |
| 2026-05-06 13:08 | 60.97287 | 24.86022 | 22926 ft | 412 kts | 354° |
| 2026-05-06 13:09 | 61.00147 | 24.86696 | 23426 ft | 416 kts | 354° |
| 2026-05-06 13:09 | 61.03039 | 24.87385 | 23852 ft | 420 kts | 354° |
| 2026-05-06 13:09 | 61.05957 | 24.88089 | 24264 ft | 424 kts | 354° |
| 2026-05-06 13:09 | 61.08900 | 24.88800 | 24669 ft | 428 kts | 354° |
| 2026-05-06 13:10 | 61.11870 | 24.89517 | 25082 ft | 431 kts | 354° |
| 2026-05-06 13:10 | 61.14860 | 24.90236 | 25566 ft | 434 kts | 354° |
| 2026-05-06 13:10 | 61.17866 | 24.90960 | 25993 ft | 437 kts | 354° |
| 2026-05-06 13:10 | 61.20895 | 24.91686 | 26376 ft | 440 kts | 354° |
| 2026-05-06 13:11 | 61.23908 | 24.92409 | 26755 ft | 443 kts | 353° |
| 2026-05-06 13:11 | 61.26982 | 24.93148 | 27138 ft | 446 kts | 353° |
| 2026-05-06 13:11 | 61.30076 | 24.93896 | 27515 ft | 449 kts | 353° |
| 2026-05-06 13:11 | 61.33193 | 24.94651 | 27885 ft | 453 kts | 353° |
| 2026-05-06 13:12 | 61.36333 | 24.95412 | 28261 ft | 456 kts | 353° |
| 2026-05-06 13:12 | 61.39504 | 24.96180 | 28624 ft | 459 kts | 353° |
| 2026-05-06 13:12 | 61.42688 | 24.96952 | 28983 ft | 462 kts | 353° |
| 2026-05-06 13:12 | 61.45889 | 24.97733 | 29428 ft | 465 kts | 353° |
| 2026-05-06 13:13 | 61.49113 | 24.98527 | 29802 ft | 467 kts | 353° |
| 2026-05-06 13:13 | 61.52352 | 24.99329 | 30119 ft | 470 kts | 353° |
| 2026-05-06 13:13 | 61.55608 | 25.00136 | 30420 ft | 473 kts | 354° |
| 2026-05-06 13:13 | 61.58881 | 25.00951 | 30715 ft | 475 kts | 354° |
| 2026-05-06 13:14 | 61.62158 | 25.01582 | 31025 ft | 468 kts | 349° |
| 2026-05-06 13:14 | 61.65406 | 25.01716 | 31331 ft | 468 kts | 348° |
| 2026-05-06 13:14 | 61.68672 | 25.01832 | 31682 ft | 469 kts | 348° |
| 2026-05-06 13:14 | 61.71931 | 25.01957 | 32123 ft | 467 kts | 348° |
| 2026-05-06 13:15 | 61.75178 | 25.02084 | 32547 ft | 466 kts | 348° |
| 2026-05-06 13:15 | 61.78415 | 25.02208 | 33009 ft | 465 kts | 349° |
| 2026-05-06 13:15 | 61.81644 | 25.02330 | 33473 ft | 464 kts | 349° |
| 2026-05-06 13:15 | 61.84876 | 25.02451 | 33811 ft | 464 kts | 350° |
| 2026-05-06 13:16 | 61.88069 | 25.02568 | 34124 ft | 465 kts | 350° |
| 2026-05-06 13:16 | 61.91303 | 25.02686 | 34419 ft | 465 kts | 351° |
| 2026-05-06 13:16 | 61.94543 | 25.02807 | 34717 ft | 465 kts | 351° |
| 2026-05-06 13:16 | 61.97781 | 25.02933 | 34998 ft | 465 kts | 351° |
| 2026-05-06 13:17 | 62.01013 | 25.03059 | 35276 ft | 465 kts | 351° |
| 2026-05-06 13:17 | 62.04251 | 25.03184 | 35555 ft | 465 kts | 352° |
| 2026-05-06 13:17 | 62.07488 | 25.03304 | 35838 ft | 466 kts | 352° |
| 2026-05-06 13:17 | 62.10729 | 25.03419 | 35952 ft | 465 kts | 352° |
| 2026-05-06 13:18 | 62.13952 | 25.03544 | 35941 ft | 462 kts | 352° |
| 2026-05-06 13:18 | 62.20371 | 25.03806 | 35942 ft | 461 kts | 352° |
| 2026-05-06 13:19 | 62.26787 | 25.04058 | 35933 ft | 461 kts | 352° |
| 2026-05-06 13:19 | 62.33195 | 25.04295 | 35934 ft | 460 kts | 352° |
| 2026-05-06 13:20 | 62.39566 | 25.04534 | 35935 ft | 461 kts | 352° |
| 2026-05-06 13:20 | 62.45988 | 25.04784 | 35944 ft | 461 kts | 352° |
| 2026-05-06 13:21 | 62.52413 | 25.05043 | 35945 ft | 462 kts | 352° |
| 2026-05-06 13:21 | 62.58842 | 25.05308 | 35967 ft | 462 kts | 353° |
| 2026-05-06 13:22 | 62.65276 | 25.05553 | 35956 ft | 463 kts | 353° |
| 2026-05-06 13:22 | 62.71717 | 25.05791 | 35956 ft | 463 kts | 353° |
| 2026-05-06 13:23 | 62.78159 | 25.06031 | 35949 ft | 462 kts | 353° |
| 2026-05-06 13:23 | 62.84591 | 25.06282 | 35943 ft | 462 kts | 353° |
| 2026-05-06 13:24 | 62.91026 | 25.06553 | 35938 ft | 462 kts | 353° |
| 2026-05-06 13:24 | 62.97466 | 25.06826 | 35937 ft | 463 kts | 353° |
| 2026-05-06 13:25 | 63.03902 | 25.07087 | 35935 ft | 463 kts | 353° |
| 2026-05-06 13:25 | 63.10344 | 25.07340 | 35936 ft | 462 kts | 353° |
| 2026-05-06 13:26 | 63.16759 | 25.07592 | 35924 ft | 461 kts | 353° |
| 2026-05-06 13:26 | 63.23137 | 25.07848 | 35926 ft | 462 kts | 353° |
| 2026-05-06 13:27 | 63.29561 | 25.08125 | 35946 ft | 463 kts | 354° |
| 2026-05-06 13:27 | 63.36019 | 25.09044 | 35939 ft | 467 kts | 359° |
| 2026-05-06 13:28 | 63.42506 | 25.10657 | 35946 ft | 469 kts | 0° |
| 2026-05-06 13:28 | 63.48980 | 25.12296 | 35911 ft | 467 kts | 359° |
| 2026-05-06 13:29 | 63.55440 | 25.13743 | 35902 ft | 467 kts | 359° |
| 2026-05-06 13:29 | 63.61921 | 25.15121 | 35906 ft | 467 kts | 359° |
| 2026-05-06 13:30 | 63.68398 | 25.16519 | 35925 ft | 468 kts | 359° |
| 2026-05-06 13:30 | 63.74838 | 25.17951 | 35955 ft | 468 kts | 359° |
| 2026-05-06 13:31 | 63.81325 | 25.19412 | 35932 ft | 468 kts | 359° |
| 2026-05-06 13:31 | 63.87803 | 25.20864 | 35927 ft | 468 kts | 359° |
| 2026-05-06 13:32 | 63.94295 | 25.22310 | 35885 ft | 466 kts | 359° |
| 2026-05-06 13:32 | 63.97479 | 25.23030 | 35900 ft | 453 kts | 359° |
| 2026-05-06 13:32 | 64.00566 | 25.23745 | 35901 ft | 439 kts | 359° |
| 2026-05-06 13:33 | 64.06533 | 25.25124 | 35938 ft | 428 kts | 359° |
| 2026-05-06 13:33 | 64.12403 | 25.26438 | 35904 ft | 426 kts | 359° |
| 2026-05-06 13:34 | 64.18307 | 25.27771 | 35919 ft | 426 kts | 359° |
| 2026-05-06 13:34 | 64.24215 | 25.29124 | 35901 ft | 427 kts | 359° |
| 2026-05-06 13:35 | 64.30129 | 25.30499 | 35902 ft | 427 kts | 360° |
| 2026-05-06 13:35 | 64.36040 | 25.31881 | 35898 ft | 427 kts | 359° |
| 2026-05-06 13:36 | 64.41963 | 25.33254 | 35896 ft | 427 kts | 0° |
| 2026-05-06 13:36 | 64.47876 | 25.34633 | 35892 ft | 427 kts | 0° |
| 2026-05-06 13:37 | 64.53789 | 25.36004 | 35894 ft | 427 kts | 0° |
| 2026-05-06 13:37 | 64.59699 | 25.37393 | 35889 ft | 427 kts | 0° |
| 2026-05-06 13:38 | 64.65576 | 25.38792 | 35889 ft | 427 kts | 0° |
| 2026-05-06 13:38 | 64.71487 | 25.40211 | 35889 ft | 427 kts | 0° |
| 2026-05-06 13:39 | 64.76406 | 25.41382 | 35888 ft | 426 kts | 0° |
| 2026-05-06 13:39 | 64.82319 | 25.42795 | 35891 ft | 426 kts | 0° |
| 2026-05-06 13:40 | 64.89221 | 25.44455 | 35891 ft | 427 kts | 0° |
| 2026-05-06 13:40 | 64.94140 | 25.45648 | 35654 ft | 429 kts | 0° |
| 2026-05-06 13:40 | 64.97087 | 25.46368 | 35511 ft | 421 kts | 0° |
| 2026-05-06 13:41 | 64.99996 | 25.47014 | 35424 ft | 420 kts | 358° |
| 2026-05-06 13:41 | 65.05807 | 25.47528 | 35266 ft | 416 kts | 355° |
| 2026-05-06 13:42 | 65.11580 | 25.47616 | 35117 ft | 414 kts | 355° |
| 2026-05-06 13:42 | 65.17346 | 25.47786 | 34660 ft | 416 kts | 356° |
| 2026-05-06 13:42 | 65.20252 | 25.47940 | 34128 ft | 419 kts | 356° |
| 2026-05-06 13:43 | 65.23174 | 25.48123 | 33519 ft | 421 kts | 356° |
| 2026-05-06 13:43 | 65.26068 | 25.48312 | 32964 ft | 421 kts | 356° |
| 2026-05-06 13:43 | 65.28994 | 25.48502 | 32414 ft | 420 kts | 356° |
| 2026-05-06 13:43 | 65.31919 | 25.48686 | 31867 ft | 420 kts | 356° |
| 2026-05-06 13:44 | 65.34844 | 25.48859 | 31317 ft | 420 kts | 356° |
| 2026-05-06 13:44 | 65.37761 | 25.49022 | 30770 ft | 420 kts | 356° |
| 2026-05-06 13:44 | 65.40683 | 25.49187 | 30234 ft | 420 kts | 357° |
| 2026-05-06 13:44 | 65.43611 | 25.49355 | 29611 ft | 421 kts | 357° |
| 2026-05-06 13:45 | 65.46533 | 25.49526 | 29044 ft | 418 kts | 358° |
| 2026-05-06 13:45 | 65.52299 | 25.49868 | 27963 ft | 411 kts | 358° |
| 2026-05-06 13:45 | 65.55150 | 25.50037 | 27421 ft | 408 kts | 358° |
| 2026-05-06 13:46 | 65.57980 | 25.50203 | 26895 ft | 406 kts | 358° |
| 2026-05-06 13:46 | 65.60791 | 25.50363 | 26367 ft | 403 kts | 358° |
| 2026-05-06 13:46 | 65.63587 | 25.50525 | 25841 ft | 401 kts | 359° |
| 2026-05-06 13:46 | 65.66334 | 25.50686 | 25324 ft | 399 kts | 359° |
| 2026-05-06 13:47 | 65.69139 | 25.50850 | 24792 ft | 397 kts | 359° |
| 2026-05-06 13:47 | 65.71857 | 25.51009 | 24284 ft | 395 kts | 359° |
| 2026-05-06 13:47 | 65.74599 | 25.51170 | 23769 ft | 394 kts | 360° |
| 2026-05-06 13:47 | 65.77341 | 25.51333 | 23219 ft | 392 kts | 360° |
| 2026-05-06 13:48 | 65.80062 | 25.51498 | 22680 ft | 389 kts | 360° |
| 2026-05-06 13:48 | 65.82758 | 25.51660 | 22176 ft | 386 kts | 360° |
| 2026-05-06 13:48 | 65.85437 | 25.51818 | 21669 ft | 383 kts | 360° |
| 2026-05-06 13:48 | 65.88094 | 25.51977 | 21175 ft | 380 kts | 360° |
| 2026-05-06 13:49 | 65.90731 | 25.52136 | 20675 ft | 377 kts | 0° |
| 2026-05-06 13:49 | 65.93341 | 25.52298 | 20185 ft | 374 kts | 0° |
| 2026-05-06 13:49 | 65.95931 | 25.52463 | 19700 ft | 371 kts | 0° |
| 2026-05-06 13:49 | 65.98498 | 25.52626 | 19216 ft | 367 kts | 0° |
| 2026-05-06 13:50 | 66.01041 | 25.52785 | 18738 ft | 364 kts | 0° |
| 2026-05-06 13:50 | 66.03564 | 25.52934 | 18264 ft | 361 kts | 360° |
| 2026-05-06 13:50 | 66.06061 | 25.53150 | 17756 ft | 357 kts | 4° |
| 2026-05-06 13:50 | 66.08473 | 25.54438 | 17299 ft | 354 kts | 18° |
| 2026-05-06 13:51 | 66.10673 | 25.56913 | 16828 ft | 350 kts | 25° |
| 2026-05-06 13:51 | 66.12824 | 25.59597 | 16482 ft | 339 kts | 25° |
| 2026-05-06 13:51 | 66.14838 | 25.62124 | 16250 ft | 312 kts | 25° |
| 2026-05-06 13:51 | 66.16754 | 25.64532 | 15560 ft | 304 kts | 25° |
| 2026-05-06 13:52 | 66.18588 | 25.66830 | 15144 ft | 288 kts | 25° |
| 2026-05-06 13:52 | 66.20337 | 25.69020 | 14773 ft | 278 kts | 25° |
| 2026-05-06 13:52 | 66.22051 | 25.71164 | 14301 ft | 273 kts | 25° |
| 2026-05-06 13:52 | 66.23733 | 25.73265 | 13687 ft | 269 kts | 25° |
| 2026-05-06 13:53 | 66.25395 | 25.75341 | 13016 ft | 266 kts | 25° |
| 2026-05-06 13:53 | 66.27037 | 25.77396 | 12354 ft | 263 kts | 26° |
| 2026-05-06 13:53 | 66.28657 | 25.79436 | 11718 ft | 260 kts | 26° |
| 2026-05-06 13:53 | 66.30263 | 25.81469 | 10933 ft | 262 kts | 26° |
| 2026-05-06 13:54 | 66.31929 | 25.83575 | 9874 ft | 275 kts | 26° |
| 2026-05-06 13:54 | 66.33648 | 25.85747 | 8982 ft | 277 kts | 26° |
| 2026-05-06 13:54 | 66.35355 | 25.87911 | 8205 ft | 274 kts | 26° |
| 2026-05-06 13:54 | 66.37040 | 25.90061 | 7877 ft | 272 kts | 26° |
| 2026-05-06 13:55 | 66.38725 | 25.92212 | 7751 ft | 272 kts | 26° |
| 2026-05-06 13:55 | 66.40410 | 25.94358 | 7616 ft | 271 kts | 26° |
| 2026-05-06 13:55 | 66.42090 | 25.96504 | 7399 ft | 270 kts | 27° |
| 2026-05-06 13:55 | 66.43729 | 25.98594 | 7157 ft | 263 kts | 26° |
| 2026-05-06 13:56 | 66.45340 | 26.00645 | 6902 ft | 258 kts | 26° |
| 2026-05-06 13:56 | 66.46936 | 26.02679 | 6582 ft | 256 kts | 26° |
| 2026-05-06 13:56 | 66.47627 | 26.03562 | 6443 ft | 256 kts | 26° |
| 2026-05-06 13:56 | 66.48802 | 26.05073 | 6203 ft | 255 kts | 27° |
| 2026-05-06 13:57 | 66.50372 | 26.07095 | 5868 ft | 253 kts | 26° |
| 2026-05-06 13:57 | 66.51941 | 26.09110 | 5519 ft | 252 kts | 27° |
| 2026-05-06 13:57 | 66.53502 | 26.11116 | 5175 ft | 251 kts | 26° |
| 2026-05-06 13:57 | 66.55052 | 26.13119 | 4853 ft | 250 kts | 27° |
| 2026-05-06 13:58 | 66.56587 | 26.15113 | 4636 ft | 246 kts | 27° |
| 2026-05-06 13:58 | 66.58119 | 26.17102 | 4507 ft | 249 kts | 27° |
| 2026-05-06 13:58 | 66.59661 | 26.19093 | 4369 ft | 249 kts | 27° |
| 2026-05-06 13:58 | 66.61196 | 26.21081 | 4104 ft | 247 kts | 27° |
| 2026-05-06 13:59 | 66.62693 | 26.23023 | 3968 ft | 237 kts | 26° |
| 2026-05-06 13:59 | 66.64220 | 26.24211 | 3832 ft | 226 kts | 3° |
| 2026-05-06 13:59 | 66.65720 | 26.23744 | 3617 ft | 219 kts | 340° |
| 2026-05-06 13:59 | 66.67013 | 26.21790 | 3312 ft | 217 kts | 316° |
| 2026-05-06 14:00 | 66.67968 | 26.18844 | 2986 ft | 217 kts | 307° |
| 2026-05-06 14:00 | 66.68664 | 26.15484 | 2628 ft | 217 kts | 287° |
| 2026-05-06 14:00 | 66.68851 | 26.11780 | 2517 ft | 209 kts | 267° |
| 2026-05-06 14:00 | 66.68561 | 26.08323 | 2520 ft | 190 kts | 249° |
| 2026-05-06 14:01 | 66.67960 | 26.05613 | 2503 ft | 169 kts | 233° |
| 2026-05-06 14:01 | 66.67164 | 26.03546 | 2501 ft | 161 kts | 219° |
| 2026-05-06 14:01 | 66.66275 | 26.01839 | 2511 ft | 159 kts | 218° |
| 2026-05-06 14:01 | 66.65402 | 26.00151 | 2505 ft | 158 kts | 217° |
| 2026-05-06 14:02 | 66.64526 | 25.98463 | 2387 ft | 159 kts | 218° |
| 2026-05-06 14:02 | 66.63651 | 25.96779 | 2210 ft | 158 kts | 218° |
| 2026-05-06 14:02 | 66.62791 | 25.95126 | 2021 ft | 151 kts | 218° |
| 2026-05-06 14:02 | 66.61973 | 25.93551 | 1795 ft | 145 kts | 218° |
| 2026-05-06 14:03 | 66.61172 | 25.92014 | 1603 ft | 144 kts | 218° |
| 2026-05-06 14:03 | 66.60375 | 25.90489 | 1406 ft | 143 kts | 217° |
| 2026-05-06 14:03 | 66.59594 | 25.88993 | 1187 ft | 143 kts | 217° |
| 2026-05-06 14:03 | 66.58798 | 25.87472 | 979 ft | 144 kts | 217° |
| 2026-05-06 14:04 | 66.58006 | 25.85950 | 773 ft | 143 kts | 216° |
| 2026-05-06 14:04 | 66.57220 | 25.84460 | 637 ft | 133 kts | 217° |
| 2026-05-06 14:04 | 66.56603 | 25.83283 | 649 ft | 87 kts | 218° |
| 2026-05-06 14:04 | 66.56356 | 25.82806 | 651 ft | 30 kts | 217° |
| 2026-05-06 14:05 | 66.56263 | 25.82731 | 653 ft | 11 kts | 149° |
| 2026-05-06 14:05 | 66.56215 | 25.82876 | 653 ft | 12 kts | 124° |
| 2026-05-06 14:05 | 66.56161 | 25.82967 | 651 ft | 10 kts | 194° |
| 2026-05-06 14:05 | 66.56073 | 25.82811 | 645 ft | 21 kts | 218° |
| 2026-05-06 14:06 | 66.55950 | 25.82578 | 643 ft | 19 kts | 217° |
| 2026-05-06 14:06 | 66.55877 | 25.82520 | 640 ft | 11 kts | 153° |
| 2026-05-06 14:06 | 66.55833 | 25.82610 | 644 ft | 4 kts | 138° |